Hauptseite
METAR-TAF:

METAR-TAF

Flughäfen :

Pjöngjang, Nordkorea

Flughafen Sunan

Breite: 39-02N, Länge: 125-47E, Höhe: 36 m

METAR: fehlend

Zeit: 22:35 (14:05 UTC)

Prognose

Neuester Wetterbericht von vor 10 Stunden und 35 Minuten, um 03:30 UTC
Gültige Prognose vom 20 um 06 UTC bis 21 um 06 UTC
Wind 6 kt aus West
Sichtweite 10 km oder mehr
Aufgelockert bewölkt in der Höhe von 2000 ft
Übergehend zu
vom 20 um 10 UTC bis 20 um 12 UTC
Wind 6 kt aus Nord
Zeitweise
vom 20 um 18 UTC bis 20 um 24 UTC
Sichtweite: 0500 m
Nebel
Übergehend zu
vom 21 um 03 UTC bis 21 um 05 UTC
Wind 6 kt aus Nord/Nordwest
Aufgelockert bewölkt in der Höhe von 2000 ft
Durchbrochene Bewölkung in der Höhe von 20000 ft

TAF: ZKPY 200330Z 2006/2106 27003MPS 9999 SCT020 BECMG 2010/2012 36003MPS TEMPO 2018/2024 0500 FG BECMG 2103/2105 34003MPS SCT020 BKN200 TX21/2007Z TN06/2021Z

Wetterbeobachtungen und Prognosen von mehr als 4000 Flughäfen (METAR und TAF Bericht).

Die verfügbaren Stationen werden durch gelbe und rote Markierungen auf der Karte dargestellt.

Führen Sie die Maus auf sie, um den Namen der Station zu sehen.

Darauf klicken, um die Beobachtung von Wetterbeobachtungen und Prognosen zu sehen.

Um die Karte zu ändern : klicken Sie auf den grünen Tasten mit einem schwarzen Kreuz Zum Vergrößern, auf den grünen Button mit einem Gedankenstrich zu verkleinern, oder auf die grünen Pfeile für benachbarte Karten.


METAR-TAF: